Gageville, Vermont
Current Conditions -  °F | °C
As of 6:54 PM on Friday 24 Oct 2014 (Local Time) from KVSF Reporting Station
Overcast Overcast  
Wind Chill: 47°   Ceiling: 2500
Heat Index: 47°   Visibility: 10mi
Dew Point: 40°   Wind: 0mph
Humidity: 77%   Direction: NA
Pressure: 29.78"   Gusts: NA
Location:  43.1826°N, 72.5005°W
Report Text: KVSF 242254Z AUTO 00000KT 10SM OVC025 08/04 A2978 RMK AO2 SLP088 T00830044
Loading
Personal Weather Stations






























Interactive Weather Map
Tropical Storm Tracking
New forecast layout! Learn more

10-Day Weather Forecast

Advertisements
Track Severe Weather on mobile